Terminal Aerodrome Forecast
Issued by NWS Blacksburg, VA

Current Version | Previous Version | Text Only | Print | Product List | Glossary Off
Versions: 1 2 3 4 5 6 7 8 9 10 11 12 13 14 15 16 17 18 19 20 21 22 23 24 25 26 27 28 29 30 31 32 33 34 35 36 37 38 39 40 41 42 43 44 45 46

543
FTUS41 KRNK 160634 AAA
TAFBLF
TAF AMD
KBLF 160634Z 1607/1706 24004KT 2SM BR SCT002
      TEMPO 1607/1609 3/4SM BR OVC002
     FM160900 00000KT 2SM BR SCT001
      TEMPO 1609/1613 1/4SM FG BKN001
     FM161300 00000KT P6SM SCT008
     FM161400 00000KT P6SM SCT050=

USA.gov is the U.S. government's official web portal to all federal, state and local government web resources and services.